sensor_id;sensor_type;location;lat;lon;timestamp;pressure;altitude;pressure_sealevel;temperature;humidity
8366;BME280;4220;42.502;24.188;2023-12-29T00:00:39;95840.13;;;2.32;100.00
8366;BME280;4220;42.502;24.188;2023-12-29T00:03:06;95815.53;;;2.25;100.00
8366;BME280;4220;42.502;24.188;2023-12-29T00:05:32;95841.66;;;2.42;100.00
8366;BME280;4220;42.502;24.188;2023-12-29T00:07:59;95833.94;;;2.41;100.00
8366;BME280;4220;42.502;24.188;2023-12-29T00:10:25;95827.75;;;2.42;100.00
8366;BME280;4220;42.502;24.188;2023-12-29T00:12:52;95827.16;;;2.48;100.00
8366;BME280;4220;42.502;24.188;2023-12-29T00:15:20;95824.28;;;2.33;100.00
8366;BME280;4220;42.502;24.188;2023-12-29T00:17:47;95826.09;;;2.41;100.00
8366;BME280;4220;42.502;24.188;2023-12-29T00:20:14;95823.16;;;2.36;100.00
8366;BME280;4220;42.502;24.188;2023-12-29T00:22:41;95825.63;;;2.20;100.00
8366;BME280;4220;42.502;24.188;2023-12-29T00:25:07;95823.28;;;2.09;100.00
8366;BME280;4220;42.502;24.188;2023-12-29T00:27:35;95817.28;;;2.16;100.00
8366;BME280;4220;42.502;24.188;2023-12-29T00:30:02;95791.34;;;2.05;100.00
8366;BME280;4220;42.502;24.188;2023-12-29T00:32:30;95811.78;;;2.27;100.00
8366;BME280;4220;42.502;24.188;2023-12-29T00:34:57;95811.94;;;2.26;100.00
8366;BME280;4220;42.502;24.188;2023-12-29T00:37:24;95786.00;;;2.15;100.00
8366;BME280;4220;42.502;24.188;2023-12-29T00:39:51;95770.94;;;2.09;100.00
8366;BME280;4220;42.502;24.188;2023-12-29T00:42:17;95816.56;;;2.32;100.00
8366;BME280;4220;42.502;24.188;2023-12-29T00:44:44;95826.34;;;2.30;100.00
8366;BME280;4220;42.502;24.188;2023-12-29T00:47:11;95814.66;;;2.16;100.00
8366;BME280;4220;42.502;24.188;2023-12-29T00:49:39;95752.50;;;1.75;100.00
8366;BME280;4220;42.502;24.188;2023-12-29T00:52:06;95809.72;;;2.13;100.00
8366;BME280;4220;42.502;24.188;2023-12-29T00:54:33;95818.75;;;2.19;100.00
8366;BME280;4220;42.502;24.188;2023-12-29T00:57:00;95815.16;;;2.20;100.00
8366;BME280;4220;42.502;24.188;2023-12-29T00:59:27;95805.63;;;2.11;100.00
8366;BME280;4220;42.502;24.188;2023-12-29T01:01:53;95802.72;;;2.14;100.00
8366;BME280;4220;42.502;24.188;2023-12-29T01:04:20;95806.38;;;2.03;100.00
8366;BME280;4220;42.502;24.188;2023-12-29T01:06:48;95809.94;;;2.02;100.00
8366;BME280;4220;42.502;24.188;2023-12-29T01:09:15;95796.38;;;1.98;100.00
8366;BME280;4220;42.502;24.188;2023-12-29T01:11:42;95794.72;;;1.97;100.00
8366;BME280;4220;42.502;24.188;2023-12-29T01:14:09;95798.38;;;2.05;100.00
8366;BME280;4220;42.502;24.188;2023-12-29T01:16:35;95787.84;;;1.96;100.00
8366;BME280;4220;42.502;24.188;2023-12-29T01:19:02;95791.97;;;1.81;100.00
8366;BME280;4220;42.502;24.188;2023-12-29T01:21:29;95799.00;;;1.81;100.00
8366;BME280;4220;42.502;24.188;2023-12-29T01:24:00;95802.94;;;1.67;100.00
8366;BME280;4220;42.502;24.188;2023-12-29T01:26:29;95766.28;;;1.42;100.00
8366;BME280;4220;42.502;24.188;2023-12-29T01:28:55;95808.41;;;1.56;100.00
8366;BME280;4220;42.502;24.188;2023-12-29T01:31:22;95806.09;;;1.53;100.00
8366;BME280;4220;42.502;24.188;2023-12-29T01:33:49;95801.25;;;1.58;100.00
8366;BME280;4220;42.502;24.188;2023-12-29T01:36:17;95804.97;;;1.56;100.00
8366;BME280;4220;42.502;24.188;2023-12-29T01:38:44;95799.63;;;1.57;100.00
8366;BME280;4220;42.502;24.188;2023-12-29T01:41:14;95795.34;;;1.56;100.00
8366;BME280;4220;42.502;24.188;2023-12-29T01:44:17;95787.13;;;1.51;100.00
8366;BME280;4220;42.502;24.188;2023-12-29T01:46:45;95791.78;;;1.57;100.00
8366;BME280;4220;42.502;24.188;2023-12-29T01:49:13;95774.81;;;1.61;100.00
8366;BME280;4220;42.502;24.188;2023-12-29T01:51:42;95778.16;;;1.71;100.00
8366;BME280;4220;42.502;24.188;2023-12-29T01:54:10;95780.41;;;1.66;100.00
8366;BME280;4220;42.502;24.188;2023-12-29T01:56:41;95770.63;;;1.68;100.00
8366;BME280;4220;42.502;24.188;2023-12-29T01:59:07;95769.56;;;1.79;100.00
8366;BME280;4220;42.502;24.188;2023-12-29T02:01:34;95774.34;;;1.83;100.00
8366;BME280;4220;42.502;24.188;2023-12-29T02:04:02;95775.53;;;1.89;100.00
8366;BME280;4220;42.502;24.188;2023-12-29T02:06:29;95774.91;;;1.95;100.00
8366;BME280;4220;42.502;24.188;2023-12-29T02:08:58;95766.59;;;1.99;100.00
8366;BME280;4220;42.502;24.188;2023-12-29T02:11:26;95771.53;;;2.03;100.00
8366;BME280;4220;42.502;24.188;2023-12-29T02:13:54;95766.59;;;1.99;100.00
8366;BME280;4220;42.502;24.188;2023-12-29T02:16:29;95769.59;;;2.05;100.00
8366;BME280;4220;42.502;24.188;2023-12-29T02:18:58;95767.06;;;1.95;100.00
8366;BME280;4220;42.502;24.188;2023-12-29T02:21:26;95760.59;;;1.81;100.00
8366;BME280;4220;42.502;24.188;2023-12-29T02:23:53;95763.59;;;1.69;100.00
8366;BME280;4220;42.502;24.188;2023-12-29T02:26:22;95755.00;;;1.76;100.00
8366;BME280;4220;42.502;24.188;2023-12-29T02:28:57;95748.94;;;1.76;100.00
8366;BME280;4220;42.502;24.188;2023-12-29T02:31:27;95752.69;;;1.73;100.00
8366;BME280;4220;42.502;24.188;2023-12-29T02:33:57;95746.56;;;1.65;100.00
8366;BME280;4220;42.502;24.188;2023-12-29T02:36:26;95740.00;;;1.61;100.00
8366;BME280;4220;42.502;24.188;2023-12-29T02:38:53;95745.00;;;1.54;100.00
8366;BME280;4220;42.502;24.188;2023-12-29T02:41:22;95700.22;;;1.14;100.00
8366;BME280;4220;42.502;24.188;2023-12-29T02:43:50;95656.47;;;0.81;100.00
8366;BME280;4220;42.502;24.188;2023-12-29T02:46:17;95729.84;;;1.22;100.00
8366;BME280;4220;42.502;24.188;2023-12-29T02:48:44;95735.88;;;1.23;100.00
8366;BME280;4220;42.502;24.188;2023-12-29T02:51:10;95726.72;;;1.19;100.00
8366;BME280;4220;42.502;24.188;2023-12-29T02:53:37;95726.63;;;1.28;100.00
8366;BME280;4220;42.502;24.188;2023-12-29T02:56:04;95720.38;;;1.39;100.00
8366;BME280;4220;42.502;24.188;2023-12-29T02:58:33;95711.53;;;1.40;100.00
8366;BME280;4220;42.502;24.188;2023-12-29T03:00:59;95715.28;;;1.55;100.00
8366;BME280;4220;42.502;24.188;2023-12-29T03:03:26;95719.06;;;1.61;100.00
8366;BME280;4220;42.502;24.188;2023-12-29T03:05:53;95713.56;;;1.64;100.00
8366;BME280;4220;42.502;24.188;2023-12-29T03:08:20;95713.66;;;1.54;100.00
8366;BME280;4220;42.502;24.188;2023-12-29T03:10:46;95698.84;;;1.45;100.00
8366;BME280;4220;42.502;24.188;2023-12-29T03:13:13;95700.22;;;1.49;100.00
8366;BME280;4220;42.502;24.188;2023-12-29T03:15:41;95698.56;;;1.48;100.00
8366;BME280;4220;42.502;24.188;2023-12-29T03:18:08;95696.47;;;1.52;100.00
8366;BME280;4220;42.502;24.188;2023-12-29T03:20:35;95688.38;;;1.45;100.00
8366;BME280;4220;42.502;24.188;2023-12-29T03:23:02;95695.81;;;1.50;100.00
8366;BME280;4220;42.502;24.188;2023-12-29T03:25:29;95695.06;;;1.40;100.00
8366;BME280;4220;42.502;24.188;2023-12-29T03:27:55;95666.25;;;1.31;100.00
8366;BME280;4220;42.502;24.188;2023-12-29T03:30:22;95680.13;;;1.32;100.00
8366;BME280;4220;42.502;24.188;2023-12-29T03:32:50;95663.56;;;1.23;100.00
8366;BME280;4220;42.502;24.188;2023-12-29T03:35:17;95681.34;;;1.38;100.00
8366;BME280;4220;42.502;24.188;2023-12-29T03:37:44;95681.84;;;1.41;100.00
8366;BME280;4220;42.502;24.188;2023-12-29T03:40:11;95665.88;;;1.44;100.00
8366;BME280;4220;42.502;24.188;2023-12-29T03:42:39;95675.78;;;1.41;100.00
8366;BME280;4220;42.502;24.188;2023-12-29T03:45:07;95657.28;;;1.34;100.00
8366;BME280;4220;42.502;24.188;2023-12-29T03:47:33;95665.78;;;1.36;100.00
8366;BME280;4220;42.502;24.188;2023-12-29T03:50:03;95673.69;;;1.44;100.00
8366;BME280;4220;42.502;24.188;2023-12-29T03:52:30;95679.88;;;1.43;100.00
8366;BME280;4220;42.502;24.188;2023-12-29T03:54:57;95676.91;;;1.38;100.00
8366;BME280;4220;42.502;24.188;2023-12-29T03:57:23;95675.78;;;1.41;100.00
8366;BME280;4220;42.502;24.188;2023-12-29T03:59:50;95668.78;;;1.41;100.00
8366;BME280;4220;42.502;24.188;2023-12-29T04:02:17;95667.38;;;1.29;100.00
8366;BME280;4220;42.502;24.188;2023-12-29T04:04:44;95664.00;;;1.37;100.00
8366;BME280;4220;42.502;24.188;2023-12-29T04:07:12;95660.50;;;1.28;100.00
8366;BME280;4220;42.502;24.188;2023-12-29T04:09:38;95668.50;;;1.09;100.00
8366;BME280;4220;42.502;24.188;2023-12-29T04:12:06;95667.06;;;0.97;100.00
8366;BME280;4220;42.502;24.188;2023-12-29T04:14:32;95662.47;;;0.91;100.00
8366;BME280;4220;42.502;24.188;2023-12-29T04:16:59;95654.75;;;0.89;100.00
8366;BME280;4220;42.502;24.188;2023-12-29T04:19:28;95644.22;;;0.99;100.00
8366;BME280;4220;42.502;24.188;2023-12-29T04:21:55;95653.28;;;1.04;100.00
8366;BME280;4220;42.502;24.188;2023-12-29T04:24:23;95651.84;;;1.10;100.00
8366;BME280;4220;42.502;24.188;2023-12-29T04:26:50;95652.53;;;1.12;100.00
8366;BME280;4220;42.502;24.188;2023-12-29T04:29:17;95658.72;;;1.11;100.00
8366;BME280;4220;42.502;24.188;2023-12-29T04:31:44;95657.38;;;1.07;100.00
8366;BME280;4220;42.502;24.188;2023-12-29T04:34:10;95657.91;;;1.10;100.00
8366;BME280;4220;42.502;24.188;2023-12-29T04:36:37;95664.31;;;1.16;100.00
8366;BME280;4220;42.502;24.188;2023-12-29T04:39:04;95675.50;;;1.08;100.00
8366;BME280;4220;42.502;24.188;2023-12-29T04:41:32;95671.75;;;1.11;100.00
8366;BME280;4220;42.502;24.188;2023-12-29T04:43:59;95665.41;;;1.13;100.00
8366;BME280;4220;42.502;24.188;2023-12-29T04:46:25;95663.72;;;1.04;100.00
8366;BME280;4220;42.502;24.188;2023-12-29T04:48:52;95664.53;;;1.05;100.00
8366;BME280;4220;42.502;24.188;2023-12-29T04:51:19;95673.13;;;0.97;100.00
8366;BME280;4220;42.502;24.188;2023-12-29T04:53:46;95667.97;;;1.05;100.00
8366;BME280;4220;42.502;24.188;2023-12-29T04:56:13;95669.97;;;1.11;100.00
8366;BME280;4220;42.502;24.188;2023-12-29T04:58:41;95666.91;;;1.16;100.00
8366;BME280;4220;42.502;24.188;2023-12-29T05:01:08;95681.00;;;1.23;100.00
8366;BME280;4220;42.502;24.188;2023-12-29T05:03:34;95670.22;;;1.18;100.00
8366;BME280;4220;42.502;24.188;2023-12-29T05:06:01;95681.19;;;1.21;100.00
8366;BME280;4220;42.502;24.188;2023-12-29T05:08:28;95665.22;;;1.07;100.00
8366;BME280;4220;42.502;24.188;2023-12-29T05:10:55;95671.84;;;1.01;100.00
8366;BME280;4220;42.502;24.188;2023-12-29T05:13:22;95680.28;;;0.95;100.00
8366;BME280;4220;42.502;24.188;2023-12-29T05:15:50;95673.19;;;0.88;100.00
8366;BME280;4220;42.502;24.188;2023-12-29T05:18:17;95685.06;;;1.00;100.00
8366;BME280;4220;42.502;24.188;2023-12-29T05:20:44;95673.34;;;1.04;100.00
8366;BME280;4220;42.502;24.188;2023-12-29T05:23:10;95685.94;;;1.08;100.00
8366;BME280;4220;42.502;24.188;2023-12-29T05:25:37;95672.97;;;1.16;100.00
8366;BME280;4220;42.502;24.188;2023-12-29T05:28:04;95682.00;;;1.22;100.00
8366;BME280;4220;42.502;24.188;2023-12-29T05:30:31;95678.84;;;1.18;100.00
8366;BME280;4220;42.502;24.188;2023-12-29T05:32:59;95666.13;;;1.15;100.00
8366;BME280;4220;42.502;24.188;2023-12-29T05:35:26;95679.69;;;1.19;100.00
8366;BME280;4220;42.502;24.188;2023-12-29T05:37:53;95673.59;;;1.10;100.00
8366;BME280;4220;42.502;24.188;2023-12-29T05:40:20;95666.84;;;0.90;100.00
8366;BME280;4220;42.502;24.188;2023-12-29T05:42:46;95647.72;;;0.72;100.00
8366;BME280;4220;42.502;24.188;2023-12-29T05:45:15;95663.56;;;0.88;100.00
8366;BME280;4220;42.502;24.188;2023-12-29T05:47:42;95668.84;;;0.96;100.00
8366;BME280;4220;42.502;24.188;2023-12-29T05:50:10;95677.81;;;0.94;100.00
8366;BME280;4220;42.502;24.188;2023-12-29T05:52:37;95677.00;;;0.93;100.00
8366;BME280;4220;42.502;24.188;2023-12-29T05:55:04;95671.63;;;0.95;100.00
8366;BME280;4220;42.502;24.188;2023-12-29T05:57:31;95682.34;;;0.92;100.00
8366;BME280;4220;42.502;24.188;2023-12-29T05:59:58;95674.25;;;0.95;100.00
8366;BME280;4220;42.502;24.188;2023-12-29T06:02:25;95679.56;;;1.03;100.00
8366;BME280;4220;42.502;24.188;2023-12-29T06:04:52;95681.84;;;1.06;100.00
8366;BME280;4220;42.502;24.188;2023-12-29T06:07:20;95676.69;;;0.96;100.00
8366;BME280;4220;42.502;24.188;2023-12-29T06:09:47;95639.16;;;0.80;100.00
8366;BME280;4220;42.502;24.188;2023-12-29T06:12:13;95631.16;;;0.81;100.00
8366;BME280;4220;42.502;24.188;2023-12-29T06:14:40;95690.06;;;1.11;100.00
8366;BME280;4220;42.502;24.188;2023-12-29T06:17:07;95687.16;;;1.14;100.00
8366;BME280;4220;42.502;24.188;2023-12-29T06:19:34;95682.91;;;1.13;100.00
8366;BME280;4220;42.502;24.188;2023-12-29T06:22:01;95687.53;;;1.19;100.00
8366;BME280;4220;42.502;24.188;2023-12-29T06:24:29;95683.13;;;1.19;100.00
8366;BME280;4220;42.502;24.188;2023-12-29T06:26:56;95685.13;;;1.25;100.00
8366;BME280;4220;42.502;24.188;2023-12-29T06:29:23;95678.94;;;1.09;100.00
8366;BME280;4220;42.502;24.188;2023-12-29T06:31:50;95690.06;;;1.11;100.00
8366;BME280;4220;42.502;24.188;2023-12-29T06:34:16;95684.59;;;0.87;100.00
8366;BME280;4220;42.502;24.188;2023-12-29T06:36:43;95691.59;;;0.69;100.00
8366;BME280;4220;42.502;24.188;2023-12-29T06:39:10;95691.59;;;0.86;100.00
8366;BME280;4220;42.502;24.188;2023-12-29T06:41:38;95683.13;;;1.02;100.00
8366;BME280;4220;42.502;24.188;2023-12-29T06:44:05;95682.59;;;1.16;100.00
8366;BME280;4220;42.502;24.188;2023-12-29T06:46:32;95660.56;;;1.18;100.00
8366;BME280;4220;42.502;24.188;2023-12-29T06:48:59;95684.53;;;1.49;100.00
8366;BME280;4220;42.502;24.188;2023-12-29T06:51:26;95693.75;;;1.61;100.00
8366;BME280;4220;42.502;24.188;2023-12-29T06:53:52;95675.53;;;1.69;100.00
8366;BME280;4220;42.502;24.188;2023-12-29T06:56:19;95676.22;;;1.79;100.00
8366;BME280;4220;42.502;24.188;2023-12-29T06:58:48;95677.69;;;1.74;100.00
8366;BME280;4220;42.502;24.188;2023-12-29T07:01:15;95667.72;;;1.77;100.00
8366;BME280;4220;42.502;24.188;2023-12-29T07:03:43;95677.59;;;1.83;100.00
8366;BME280;4220;42.502;24.188;2023-12-29T07:06:10;95676.28;;;1.87;100.00
8366;BME280;4220;42.502;24.188;2023-12-29T07:08:37;95683.72;;;2.00;100.00
8366;BME280;4220;42.502;24.188;2023-12-29T07:11:09;95680.94;;;2.02;100.00
8366;BME280;4220;42.502;24.188;2023-12-29T07:13:36;95682.00;;;2.17;100.00
8366;BME280;4220;42.502;24.188;2023-12-29T07:16:04;95681.47;;;2.31;100.00
8366;BME280;4220;42.502;24.188;2023-12-29T07:18:31;95685.56;;;2.41;100.00
8366;BME280;4220;42.502;24.188;2023-12-29T07:20:58;95680.19;;;2.43;100.00
8366;BME280;4220;42.502;24.188;2023-12-29T07:23:25;95678.53;;;2.42;100.00
8366;BME280;4220;42.502;24.188;2023-12-29T07:25:52;95676.81;;;2.50;100.00
8366;BME280;4220;42.502;24.188;2023-12-29T07:28:19;95679.44;;;2.58;100.00
8366;BME280;4220;42.502;24.188;2023-12-29T07:30:46;95678.97;;;2.71;100.00
8366;BME280;4220;42.502;24.188;2023-12-29T07:33:14;95664.25;;;2.78;100.00
8366;BME280;4220;42.502;24.188;2023-12-29T07:35:41;95674.50;;;2.97;100.00
8366;BME280;4220;42.502;24.188;2023-12-29T07:38:08;95666.63;;;3.05;100.00
8366;BME280;4220;42.502;24.188;2023-12-29T07:40:34;95674.00;;;3.10;100.00
8366;BME280;4220;42.502;24.188;2023-12-29T07:43:01;95682.06;;;3.16;100.00
8366;BME280;4220;42.502;24.188;2023-12-29T07:45:28;95681.25;;;3.24;100.00
8366;BME280;4220;42.502;24.188;2023-12-29T07:47:55;95676.81;;;3.24;100.00
8366;BME280;4220;42.502;24.188;2023-12-29T07:50:24;95682.47;;;2.80;100.00
8366;BME280;4220;42.502;24.188;2023-12-29T07:52:51;95671.09;;;2.55;100.00
8366;BME280;4220;42.502;24.188;2023-12-29T07:55:17;95672.88;;;2.54;100.00
8366;BME280;4220;42.502;24.188;2023-12-29T07:57:44;95683.22;;;2.64;100.00
8366;BME280;4220;42.502;24.188;2023-12-29T08:02:40;95669.56;;;3.10;100.00
8366;BME280;4220;42.502;24.188;2023-12-29T08:05:06;95669.09;;;3.39;100.00
8366;BME280;4220;42.502;24.188;2023-12-29T08:07:35;95682.56;;;3.44;100.00
8366;BME280;4220;42.502;24.188;2023-12-29T08:10:03;95677.50;;;3.51;100.00
8366;BME280;4220;42.502;24.188;2023-12-29T08:12:30;95678.81;;;3.71;100.00
8366;BME280;4220;42.502;24.188;2023-12-29T08:14:58;95669.56;;;3.99;100.00
8366;BME280;4220;42.502;24.188;2023-12-29T08:17:25;95685.38;;;4.38;100.00
8366;BME280;4220;42.502;24.188;2023-12-29T08:19:52;95657.94;;;4.56;100.00
8366;BME280;4220;42.502;24.188;2023-12-29T08:22:19;95679.44;;;4.91;100.00
8366;BME280;4220;42.502;24.188;2023-12-29T08:24:47;95678.66;;;5.13;100.00
8366;BME280;4220;42.502;24.188;2023-12-29T08:27:14;95673.59;;;5.34;100.00
8366;BME280;4220;42.502;24.188;2023-12-29T08:29:45;95670.97;;;5.57;100.00
8366;BME280;4220;42.502;24.188;2023-12-29T08:32:12;95667.00;;;5.75;100.00
8366;BME280;4220;42.502;24.188;2023-12-29T08:34:38;95663.75;;;5.96;100.00
8366;BME280;4220;42.502;24.188;2023-12-29T08:37:05;95664.13;;;6.08;98.70
8366;BME280;4220;42.502;24.188;2023-12-29T08:39:32;95663.50;;;6.06;98.68
8366;BME280;4220;42.502;24.188;2023-12-29T08:42:00;95663.97;;;6.24;98.43
8366;BME280;4220;42.502;24.188;2023-12-29T08:44:27;95655.16;;;6.31;96.52
8366;BME280;4220;42.502;24.188;2023-12-29T08:46:54;95648.06;;;6.46;95.99
8366;BME280;4220;42.502;24.188;2023-12-29T08:49:20;95650.59;;;6.54;93.56
8366;BME280;4220;42.502;24.188;2023-12-29T08:51:47;95639.16;;;6.62;94.28
8366;BME280;4220;42.502;24.188;2023-12-29T08:54:14;95662.00;;;6.91;93.45
8366;BME280;4220;42.502;24.188;2023-12-29T08:56:41;95667.16;;;7.13;91.28
8366;BME280;4220;42.502;24.188;2023-12-29T08:59:09;95656.22;;;7.16;92.46
8366;BME280;4220;42.502;24.188;2023-12-29T09:01:36;95643.81;;;7.32;92.08
8366;BME280;4220;42.502;24.188;2023-12-29T09:04:03;95652.50;;;7.47;91.17
8366;BME280;4220;42.502;24.188;2023-12-29T09:06:30;95630.34;;;7.48;89.41
8366;BME280;4220;42.502;24.188;2023-12-29T09:08:56;95666.75;;;7.73;88.26
8366;BME280;4220;42.502;24.188;2023-12-29T09:11:23;95625.50;;;7.72;87.66
8366;BME280;4220;42.502;24.188;2023-12-29T09:13:50;95656.69;;;8.11;86.62
8366;BME280;4220;42.502;24.188;2023-12-29T09:16:18;95645.06;;;8.33;86.28
8366;BME280;4220;42.502;24.188;2023-12-29T09:18:45;95653.75;;;8.55;84.52
8366;BME280;4220;42.502;24.188;2023-12-29T09:21:12;95643.28;;;8.75;83.12
8366;BME280;4220;42.502;24.188;2023-12-29T09:23:39;95639.91;;;8.94;82.63
8366;BME280;4220;42.502;24.188;2023-12-29T09:26:05;95640.75;;;9.07;80.55
8366;BME280;4220;42.502;24.188;2023-12-29T09:28:33;95635.13;;;9.24;79.24
8366;BME280;4220;42.502;24.188;2023-12-29T09:30:59;95621.69;;;9.25;79.40
8366;BME280;4220;42.502;24.188;2023-12-29T09:33:28;95627.63;;;9.40;79.56
8366;BME280;4220;42.502;24.188;2023-12-29T09:35:55;95635.41;;;9.55;79.38
8366;BME280;4220;42.502;24.188;2023-12-29T09:38:22;95618.72;;;9.67;79.63
8366;BME280;4220;42.502;24.188;2023-12-29T09:40:49;95630.13;;;9.94;79.42
8366;BME280;4220;42.502;24.188;2023-12-29T09:43:17;95627.09;;;10.17;78.41
8366;BME280;4220;42.502;24.188;2023-12-29T09:45:45;95628.06;;;10.35;77.31
8366;BME280;4220;42.502;24.188;2023-12-29T09:48:15;95631.69;;;10.54;74.35
8366;BME280;4220;42.502;24.188;2023-12-29T09:50:46;95620.69;;;10.64;72.25
8366;BME280;4220;42.502;24.188;2023-12-29T09:53:17;95614.28;;;10.84;72.02
8366;BME280;4220;42.502;24.188;2023-12-29T09:55:44;95589.94;;;10.94;69.38
8366;BME280;4220;42.502;24.188;2023-12-29T09:58:12;95612.38;;;11.36;68.28
8366;BME280;4220;42.502;24.188;2023-12-29T10:00:39;95604.53;;;11.54;66.57
8366;BME280;4220;42.502;24.188;2023-12-29T10:03:08;95604.59;;;11.78;65.99
8366;BME280;4220;42.502;24.188;2023-12-29T10:05:35;95594.22;;;11.95;64.99
8366;BME280;4220;42.502;24.188;2023-12-29T10:08:05;95590.28;;;12.22;65.28
8366;BME280;4220;42.502;24.188;2023-12-29T10:10:35;95587.94;;;12.51;63.72
8366;BME280;4220;42.502;24.188;2023-12-29T10:13:04;95586.88;;;12.76;61.69
8366;BME280;4220;42.502;24.188;2023-12-29T10:15:42;95579.94;;;13.05;60.01
8366;BME280;4220;42.502;24.188;2023-12-29T10:18:19;95570.59;;;13.32;58.82
8366;BME280;4220;42.502;24.188;2023-12-29T10:20:56;95570.69;;;13.55;57.01
8366;BME280;4220;42.502;24.188;2023-12-29T10:23:32;95566.44;;;13.77;55.86
8366;BME280;4220;42.502;24.188;2023-12-29T10:25:59;95553.25;;;13.94;54.18
8366;BME280;4220;42.502;24.188;2023-12-29T10:28:26;95561.03;;;14.19;53.03
8366;BME280;4220;42.502;24.188;2023-12-29T10:30:52;95555.34;;;14.27;52.12
8366;BME280;4220;42.502;24.188;2023-12-29T10:33:19;95558.97;;;14.44;52.08
8366;BME280;4220;42.502;24.188;2023-12-29T10:35:56;95525.88;;;14.45;51.39
8366;BME280;4220;42.502;24.188;2023-12-29T10:38:24;95553.94;;;14.71;50.65
8366;BME280;4220;42.502;24.188;2023-12-29T10:40:52;95555.78;;;14.70;49.03
8366;BME280;4220;42.502;24.188;2023-12-29T10:43:22;95540.44;;;14.77;49.25
8366;BME280;4220;42.502;24.188;2023-12-29T10:45:48;95544.38;;;14.86;48.84
8366;BME280;4220;42.502;24.188;2023-12-29T10:48:21;95538.66;;;14.94;48.54
8366;BME280;4220;42.502;24.188;2023-12-29T10:50:49;95540.28;;;14.95;48.94
8366;BME280;4220;42.502;24.188;2023-12-29T10:53:16;95542.13;;;14.95;49.17
8366;BME280;4220;42.502;24.188;2023-12-29T10:55:43;95543.28;;;14.99;48.66
8366;BME280;4220;42.502;24.188;2023-12-29T10:58:12;95529.59;;;14.95;48.48
8366;BME280;4220;42.502;24.188;2023-12-29T11:00:42;95545.16;;;14.98;48.20
8366;BME280;4220;42.502;24.188;2023-12-29T11:03:14;95521.28;;;15.08;48.35
8366;BME280;4220;42.502;24.188;2023-12-29T11:05:42;95523.50;;;15.12;47.83
8366;BME280;4220;42.502;24.188;2023-12-29T11:08:15;95521.53;;;15.07;48.49
8366;BME280;4220;42.502;24.188;2023-12-29T11:10:43;95512.38;;;15.03;48.19
8366;BME280;4220;42.502;24.188;2023-12-29T11:13:11;95519.31;;;15.16;47.71
8366;BME280;4220;42.502;24.188;2023-12-29T11:15:42;95513.81;;;15.22;46.78
8366;BME280;4220;42.502;24.188;2023-12-29T11:18:13;95502.00;;;15.35;46.47
8366;BME280;4220;42.502;24.188;2023-12-29T11:20:40;95510.81;;;15.47;44.82
8366;BME280;4220;42.502;24.188;2023-12-29T11:23:09;95484.22;;;15.40;45.18
8366;BME280;4220;42.502;24.188;2023-12-29T11:25:37;95494.13;;;15.56;44.49
8366;BME280;4220;42.502;24.188;2023-12-29T11:28:06;95491.13;;;15.53;44.38
8366;BME280;4220;42.502;24.188;2023-12-29T11:30:36;95497.84;;;15.55;43.64
8366;BME280;4220;42.502;24.188;2023-12-29T11:33:08;95495.97;;;15.73;42.83
8366;BME280;4220;42.502;24.188;2023-12-29T11:35:40;95495.34;;;15.82;42.68
8366;BME280;4220;42.502;24.188;2023-12-29T11:38:33;95501.91;;;15.91;42.58
8366;BME280;4220;42.502;24.188;2023-12-29T11:41:09;95486.34;;;15.88;42.64
8366;BME280;4220;42.502;24.188;2023-12-29T11:43:37;95488.91;;;16.00;41.92
8366;BME280;4220;42.502;24.188;2023-12-29T11:46:06;95504.19;;;15.99;42.91
8366;BME280;4220;42.502;24.188;2023-12-29T11:48:53;95504.03;;;15.89;42.40
8366;BME280;4220;42.502;24.188;2023-12-29T11:51:30;95498.16;;;15.92;43.00
8366;BME280;4220;42.502;24.188;2023-12-29T11:53:58;95494.69;;;16.08;41.54
8366;BME280;4220;42.502;24.188;2023-12-29T11:56:30;95490.78;;;16.16;41.03
8366;BME280;4220;42.502;24.188;2023-12-29T11:59:03;95498.63;;;16.22;41.23
8366;BME280;4220;42.502;24.188;2023-12-29T12:01:40;95487.72;;;16.29;41.25
8366;BME280;4220;42.502;24.188;2023-12-29T12:04:34;95492.94;;;16.35;41.38
8366;BME280;4220;42.502;24.188;2023-12-29T12:07:03;95482.22;;;16.35;41.25
8366;BME280;4220;42.502;24.188;2023-12-29T12:09:30;95486.44;;;16.31;40.98
8366;BME280;4220;42.502;24.188;2023-12-29T12:11:58;95481.06;;;16.31;40.93
8366;BME280;4220;42.502;24.188;2023-12-29T12:14:44;95475.63;;;16.43;40.30
8366;BME280;4220;42.502;24.188;2023-12-29T12:17:12;95472.22;;;16.69;40.25
8366;BME280;4220;42.502;24.188;2023-12-29T12:19:53;95469.13;;;16.77;38.80
8366;BME280;4220;42.502;24.188;2023-12-29T12:22:24;95479.97;;;16.87;39.15
8366;BME280;4220;42.502;24.188;2023-12-29T12:24:55;95481.13;;;16.96;38.32
8366;BME280;4220;42.502;24.188;2023-12-29T12:27:22;95475.16;;;16.89;38.08
8366;BME280;4220;42.502;24.188;2023-12-29T12:29:52;95478.19;;;16.98;38.18
8366;BME280;4220;42.502;24.188;2023-12-29T12:32:23;95472.75;;;16.93;37.54
8366;BME280;4220;42.502;24.188;2023-12-29T12:34:51;95480.97;;;17.08;37.87
8366;BME280;4220;42.502;24.188;2023-12-29T12:37:21;95464.91;;;17.08;37.00
8366;BME280;4220;42.502;24.188;2023-12-29T12:39:49;95481.66;;;16.98;36.84
8366;BME280;4220;42.502;24.188;2023-12-29T12:42:16;95481.78;;;17.09;38.07
8366;BME280;4220;42.502;24.188;2023-12-29T12:44:48;95474.78;;;17.08;37.30
8366;BME280;4220;42.502;24.188;2023-12-29T12:47:19;95486.53;;;17.02;38.10
8366;BME280;4220;42.502;24.188;2023-12-29T12:49:51;95495.41;;;17.02;37.61
8366;BME280;4220;42.502;24.188;2023-12-29T12:52:18;95491.34;;;16.99;37.79
8366;BME280;4220;42.502;24.188;2023-12-29T12:54:47;95492.78;;;17.07;37.85
8366;BME280;4220;42.502;24.188;2023-12-29T12:57:18;95506.88;;;16.97;37.65
8366;BME280;4220;42.502;24.188;2023-12-29T12:59:46;95493.41;;;16.92;39.47
8366;BME280;4220;42.502;24.188;2023-12-29T13:02:13;95494.91;;;16.83;38.23
8366;BME280;4220;42.502;24.188;2023-12-29T13:04:41;95490.28;;;16.79;39.00
8366;BME280;4220;42.502;24.188;2023-12-29T13:07:10;95482.69;;;16.71;39.77
8366;BME280;4220;42.502;24.188;2023-12-29T13:09:37;95479.22;;;16.70;39.55
8366;BME280;4220;42.502;24.188;2023-12-29T13:12:10;95483.47;;;16.50;40.67
8366;BME280;4220;42.502;24.188;2023-12-29T13:14:38;95461.25;;;16.49;40.14
8366;BME280;4220;42.502;24.188;2023-12-29T13:17:08;95469.19;;;16.44;40.40
8366;BME280;4220;42.502;24.188;2023-12-29T13:19:36;95483.81;;;16.36;41.43